sensor_id;sensor_type;location;lat;lon;timestamp;temperature;humidity
13375;DHT22;6756;51.354;15.754;2022-10-18T00:02:20;9.10;99.90
13375;DHT22;6756;51.354;15.754;2022-10-18T00:06:21;9.10;99.90
13375;DHT22;6756;51.354;15.754;2022-10-18T00:10:21;9.10;99.90
13375;DHT22;6756;51.354;15.754;2022-10-18T00:14:24;9.20;99.90
13375;DHT22;6756;51.354;15.754;2022-10-18T00:18:25;9.40;99.90
13375;DHT22;6756;51.354;15.754;2022-10-18T00:22:26;9.40;99.90
13375;DHT22;6756;51.354;15.754;2022-10-18T00:26:28;9.50;99.90
13375;DHT22;6756;51.354;15.754;2022-10-18T00:30:29;9.40;99.90
13375;DHT22;6756;51.354;15.754;2022-10-18T00:34:30;9.40;99.90
13375;DHT22;6756;51.354;15.754;2022-10-18T00:38:31;9.40;99.90
13375;DHT22;6756;51.354;15.754;2022-10-18T00:42:33;9.40;99.90
13375;DHT22;6756;51.354;15.754;2022-10-18T00:46:40;9.30;99.90
13375;DHT22;6756;51.354;15.754;2022-10-18T00:50:42;9.20;99.90
13375;DHT22;6756;51.354;15.754;2022-10-18T00:54:44;9.10;99.90
13375;DHT22;6756;51.354;15.754;2022-10-18T00:58:47;9.10;99.90
13375;DHT22;6756;51.354;15.754;2022-10-18T01:02:48;9.00;99.90
13375;DHT22;6756;51.354;15.754;2022-10-18T01:07:17;9.00;99.90
13375;DHT22;6756;51.354;15.754;2022-10-18T01:20:14;9.50;99.90
13375;DHT22;6756;51.354;15.754;2022-10-18T01:28:37;9.50;99.90
13375;DHT22;6756;51.354;15.754;2022-10-18T01:32:47;9.50;99.90
13375;DHT22;6756;51.354;15.754;2022-10-18T01:36:51;9.50;99.90
13375;DHT22;6756;51.354;15.754;2022-10-18T01:40:54;9.50;99.90
13375;DHT22;6756;51.354;15.754;2022-10-18T01:44:56;9.70;99.90
13375;DHT22;6756;51.354;15.754;2022-10-18T01:48:57;10.00;99.90
13375;DHT22;6756;51.354;15.754;2022-10-18T01:52:59;10.10;99.90
13375;DHT22;6756;51.354;15.754;2022-10-18T01:57:21;10.10;99.90
13375;DHT22;6756;51.354;15.754;2022-10-18T02:01:32;10.40;99.90
13375;DHT22;6756;51.354;15.754;2022-10-18T02:09:54;10.70;99.90
13375;DHT22;6756;51.354;15.754;2022-10-18T02:14:10;10.90;99.90
13375;DHT22;6756;51.354;15.754;2022-10-18T02:18:26;11.00;99.90
13375;DHT22;6756;51.354;15.754;2022-10-18T02:22:30;11.20;99.90
13375;DHT22;6756;51.354;15.754;2022-10-18T02:26:32;11.20;99.90
13375;DHT22;6756;51.354;15.754;2022-10-18T02:30:45;11.20;99.90
13375;DHT22;6756;51.354;15.754;2022-10-18T02:34:59;11.20;99.90
13375;DHT22;6756;51.354;15.754;2022-10-18T02:39:05;11.20;99.90
13375;DHT22;6756;51.354;15.754;2022-10-18T02:43:07;11.20;99.90
13375;DHT22;6756;51.354;15.754;2022-10-18T02:47:09;11.20;99.90
13375;DHT22;6756;51.354;15.754;2022-10-18T02:51:10;11.20;99.90
13375;DHT22;6756;51.354;15.754;2022-10-18T02:55:11;11.40;99.90
13375;DHT22;6756;51.354;15.754;2022-10-18T02:59:12;11.40;99.90
13375;DHT22;6756;51.354;15.754;2022-10-18T03:03:13;11.40;99.90
13375;DHT22;6756;51.354;15.754;2022-10-18T03:07:14;11.40;99.90
13375;DHT22;6756;51.354;15.754;2022-10-18T03:11:14;11.40;99.90
13375;DHT22;6756;51.354;15.754;2022-10-18T03:15:15;11.20;99.90
13375;DHT22;6756;51.354;15.754;2022-10-18T03:19:16;10.90;99.90
13375;DHT22;6756;51.354;15.754;2022-10-18T03:23:17;10.60;99.90
13375;DHT22;6756;51.354;15.754;2022-10-18T03:27:17;10.40;99.90
13375;DHT22;6756;51.354;15.754;2022-10-18T03:31:18;10.20;99.90
13375;DHT22;6756;51.354;15.754;2022-10-18T03:35:19;9.80;99.90
13375;DHT22;6756;51.354;15.754;2022-10-18T03:39:20;9.50;99.90
13375;DHT22;6756;51.354;15.754;2022-10-18T03:43:21;9.30;99.90
13375;DHT22;6756;51.354;15.754;2022-10-18T03:47:22;9.40;99.90
13375;DHT22;6756;51.354;15.754;2022-10-18T03:51:23;9.60;99.90
13375;DHT22;6756;51.354;15.754;2022-10-18T03:55:24;9.80;99.90
13375;DHT22;6756;51.354;15.754;2022-10-18T03:59:24;10.10;99.90
13375;DHT22;6756;51.354;15.754;2022-10-18T04:03:25;10.40;99.90
13375;DHT22;6756;51.354;15.754;2022-10-18T04:07:26;10.50;99.90
13375;DHT22;6756;51.354;15.754;2022-10-18T04:11:27;10.70;99.90
13375;DHT22;6756;51.354;15.754;2022-10-18T04:15:27;10.80;99.90
13375;DHT22;6756;51.354;15.754;2022-10-18T04:19:28;11.00;99.90
13375;DHT22;6756;51.354;15.754;2022-10-18T04:23:29;11.10;99.90
13375;DHT22;6756;51.354;15.754;2022-10-18T04:27:30;11.20;99.90
13375;DHT22;6756;51.354;15.754;2022-10-18T04:31:30;11.40;99.90
13375;DHT22;6756;51.354;15.754;2022-10-18T04:35:31;11.60;99.90
13375;DHT22;6756;51.354;15.754;2022-10-18T04:39:32;11.70;99.90
13375;DHT22;6756;51.354;15.754;2022-10-18T04:43:33;11.70;99.90
13375;DHT22;6756;51.354;15.754;2022-10-18T04:47:33;11.80;99.90
13375;DHT22;6756;51.354;15.754;2022-10-18T04:51:34;11.80;99.90
13375;DHT22;6756;51.354;15.754;2022-10-18T04:55:35;11.90;99.90
13375;DHT22;6756;51.354;15.754;2022-10-18T04:59:36;11.90;99.90
13375;DHT22;6756;51.354;15.754;2022-10-18T05:03:36;12.00;99.90
13375;DHT22;6756;51.354;15.754;2022-10-18T05:07:37;12.00;99.90
13375;DHT22;6756;51.354;15.754;2022-10-18T05:11:38;12.10;99.90
13375;DHT22;6756;51.354;15.754;2022-10-18T05:15:39;12.20;99.90
13375;DHT22;6756;51.354;15.754;2022-10-18T05:19:40;12.20;99.90
13375;DHT22;6756;51.354;15.754;2022-10-18T05:23:40;12.20;99.90
13375;DHT22;6756;51.354;15.754;2022-10-18T05:27:41;12.10;99.90
13375;DHT22;6756;51.354;15.754;2022-10-18T05:31:42;11.90;99.90
13375;DHT22;6756;51.354;15.754;2022-10-18T05:35:43;12.00;99.90
13375;DHT22;6756;51.354;15.754;2022-10-18T05:39:44;12.00;99.90
13375;DHT22;6756;51.354;15.754;2022-10-18T05:43:44;12.00;99.90
13375;DHT22;6756;51.354;15.754;2022-10-18T05:47:45;11.90;99.90
13375;DHT22;6756;51.354;15.754;2022-10-18T05:51:46;11.90;99.90
13375;DHT22;6756;51.354;15.754;2022-10-18T05:55:47;11.90;99.90
13375;DHT22;6756;51.354;15.754;2022-10-18T05:59:47;11.90;99.90
13375;DHT22;6756;51.354;15.754;2022-10-18T06:03:49;11.80;99.90
13375;DHT22;6756;51.354;15.754;2022-10-18T06:07:50;11.70;99.90
13375;DHT22;6756;51.354;15.754;2022-10-18T06:11:51;11.70;99.90
13375;DHT22;6756;51.354;15.754;2022-10-18T06:15:55;11.70;99.90
13375;DHT22;6756;51.354;15.754;2022-10-18T06:19:57;11.80;99.90
13375;DHT22;6756;51.354;15.754;2022-10-18T06:23:58;11.90;99.90
13375;DHT22;6756;51.354;15.754;2022-10-18T06:27:59;12.00;99.90
13375;DHT22;6756;51.354;15.754;2022-10-18T06:31:59;12.10;99.90
13375;DHT22;6756;51.354;15.754;2022-10-18T06:36:05;12.20;99.90
13375;DHT22;6756;51.354;15.754;2022-10-18T06:40:07;12.40;99.90
13375;DHT22;6756;51.354;15.754;2022-10-18T06:44:08;12.70;99.90
13375;DHT22;6756;51.354;15.754;2022-10-18T06:48:14;13.00;99.90
13375;DHT22;6756;51.354;15.754;2022-10-18T06:52:18;13.40;99.90
13375;DHT22;6756;51.354;15.754;2022-10-18T06:56:22;13.80;99.90
13375;DHT22;6756;51.354;15.754;2022-10-18T07:00:22;14.10;99.90
13375;DHT22;6756;51.354;15.754;2022-10-18T07:04:23;14.50;99.90
13375;DHT22;6756;51.354;15.754;2022-10-18T07:08:27;14.70;99.90
13375;DHT22;6756;51.354;15.754;2022-10-18T07:12:28;15.00;99.90
13375;DHT22;6756;51.354;15.754;2022-10-18T07:16:29;15.20;99.90
13375;DHT22;6756;51.354;15.754;2022-10-18T07:20:30;15.50;99.90
13375;DHT22;6756;51.354;15.754;2022-10-18T07:24:31;15.60;99.90
13375;DHT22;6756;51.354;15.754;2022-10-18T07:28:32;15.70;99.90
13375;DHT22;6756;51.354;15.754;2022-10-18T07:32:33;15.80;99.90
13375;DHT22;6756;51.354;15.754;2022-10-18T07:36:33;16.00;99.90
13375;DHT22;6756;51.354;15.754;2022-10-18T07:40:34;16.30;93.30
13375;DHT22;6756;51.354;15.754;2022-10-18T07:44:35;16.60;99.90
13375;DHT22;6756;51.354;15.754;2022-10-18T07:48:36;16.80;99.90
13375;DHT22;6756;51.354;15.754;2022-10-18T07:52:36;17.10;18.30
13375;DHT22;6756;51.354;15.754;2022-10-18T07:56:37;17.20;1.00
13375;DHT22;6756;51.354;15.754;2022-10-18T08:00:38;17.30;1.00
13375;DHT22;6756;51.354;15.754;2022-10-18T08:04:39;17.30;99.90
13375;DHT22;6756;51.354;15.754;2022-10-18T08:08:41;17.20;99.90
13375;DHT22;6756;51.354;15.754;2022-10-18T08:12:42;17.10;1.00
13375;DHT22;6756;51.354;15.754;2022-10-18T08:16:42;17.20;99.90
13375;DHT22;6756;51.354;15.754;2022-10-18T08:20:44;17.20;1.00
13375;DHT22;6756;51.354;15.754;2022-10-18T08:24:45;17.30;99.90
13375;DHT22;6756;51.354;15.754;2022-10-18T08:28:47;17.30;1.00
13375;DHT22;6756;51.354;15.754;2022-10-18T08:32:48;17.40;1.00
13375;DHT22;6756;51.354;15.754;2022-10-18T08:36:49;17.50;99.90
13375;DHT22;6756;51.354;15.754;2022-10-18T08:40:50;17.60;99.90
13375;DHT22;6756;51.354;15.754;2022-10-18T08:44:51;17.70;99.90
13375;DHT22;6756;51.354;15.754;2022-10-18T08:48:54;17.90;99.90
13375;DHT22;6756;51.354;15.754;2022-10-18T08:53:16;18.00;99.90
13375;DHT22;6756;51.354;15.754;2022-10-18T08:57:19;18.40;99.90
13375;DHT22;6756;51.354;15.754;2022-10-18T09:05:54;18.50;56.50
13375;DHT22;6756;51.354;15.754;2022-10-18T09:10:13;18.70;50.50
13375;DHT22;6756;51.354;15.754;2022-10-18T09:23:08;19.80;1.00
13375;DHT22;6756;51.354;15.754;2022-10-18T09:27:17;19.70;1.00
13375;DHT22;6756;51.354;15.754;2022-10-18T09:31:23;19.90;1.00
13375;DHT22;6756;51.354;15.754;2022-10-18T09:35:39;20.10;1.00
13375;DHT22;6756;51.354;15.754;2022-10-18T09:39:42;20.10;99.90
13375;DHT22;6756;51.354;15.754;2022-10-18T09:52:36;18.90;1.00
13375;DHT22;6756;51.354;15.754;2022-10-18T09:56:47;18.70;99.90
13375;DHT22;6756;51.354;15.754;2022-10-18T10:00:50;18.80;92.30
13375;DHT22;6756;51.354;15.754;2022-10-18T10:04:53;18.80;99.90
13375;DHT22;6756;51.354;15.754;2022-10-18T10:09:06;18.80;61.20
13375;DHT22;6756;51.354;15.754;2022-10-18T10:13:18;18.70;3.00
13375;DHT22;6756;51.354;15.754;2022-10-18T10:17:27;18.70;99.90
13375;DHT22;6756;51.354;15.754;2022-10-18T10:21:30;18.70;19.20
13375;DHT22;6756;51.354;15.754;2022-10-18T10:25:34;18.60;47.40
13375;DHT22;6756;51.354;15.754;2022-10-18T10:33:46;18.40;99.90
13375;DHT22;6756;51.354;15.754;2022-10-18T10:37:51;18.20;99.90
13375;DHT22;6756;51.354;15.754;2022-10-18T10:41:57;18.00;99.90
13375;DHT22;6756;51.354;15.754;2022-10-18T10:46:12;18.00;1.00
13375;DHT22;6756;51.354;15.754;2022-10-18T10:50:46;18.20;99.90
13375;DHT22;6756;51.354;15.754;2022-10-18T10:54:47;18.30;99.90
13375;DHT22;6756;51.354;15.754;2022-10-18T10:58:48;18.40;99.90
13375;DHT22;6756;51.354;15.754;2022-10-18T11:03:05;18.50;99.90
13375;DHT22;6756;51.354;15.754;2022-10-18T11:11:30;18.30;99.90
13375;DHT22;6756;51.354;15.754;2022-10-18T11:15:34;18.10;99.90
13375;DHT22;6756;51.354;15.754;2022-10-18T11:24:14;18.30;99.90
13375;DHT22;6756;51.354;15.754;2022-10-18T11:46:27;18.70;57.00
13375;DHT22;6756;51.354;15.754;2022-10-18T11:59:13;18.80;1.00
13375;DHT22;6756;51.354;15.754;2022-10-18T12:07:31;19.40;1.00
13375;DHT22;6756;51.354;15.754;2022-10-18T12:11:43;19.50;1.00
13375;DHT22;6756;51.354;15.754;2022-10-18T12:15:46;19.50;99.90
13375;DHT22;6756;51.354;15.754;2022-10-18T12:19:48;19.20;1.00
13375;DHT22;6756;51.354;15.754;2022-10-18T12:24:14;18.80;1.00
13375;DHT22;6756;51.354;15.754;2022-10-18T12:32:31;17.70;1.00
13375;DHT22;6756;51.354;15.754;2022-10-18T12:40:45;16.20;99.90
13375;DHT22;6756;51.354;15.754;2022-10-18T12:44:48;15.80;99.90
13375;DHT22;6756;51.354;15.754;2022-10-18T12:49:10;15.30;99.90
13375;DHT22;6756;51.354;15.754;2022-10-18T12:53:15;15.00;99.90
13375;DHT22;6756;51.354;15.754;2022-10-18T12:57:22;14.80;99.90
13375;DHT22;6756;51.354;15.754;2022-10-18T13:01:23;14.80;99.90
13375;DHT22;6756;51.354;15.754;2022-10-18T13:14:23;14.70;99.90
13375;DHT22;6756;51.354;15.754;2022-10-18T13:18:58;14.60;99.90
13375;DHT22;6756;51.354;15.754;2022-10-18T13:27:51;14.60;99.90
13375;DHT22;6756;51.354;15.754;2022-10-18T13:40:23;14.50;99.90
13375;DHT22;6756;51.354;15.754;2022-10-18T13:44:32;14.50;99.90
13375;DHT22;6756;51.354;15.754;2022-10-18T14:02:02;14.40;99.90
13375;DHT22;6756;51.354;15.754;2022-10-18T14:06:24;14.40;99.90
13375;DHT22;6756;51.354;15.754;2022-10-18T14:10:37;14.40;99.90
13375;DHT22;6756;51.354;15.754;2022-10-18T14:23:45;14.30;99.90
13375;DHT22;6756;51.354;15.754;2022-10-18T14:27:46;14.30;99.90
13375;DHT22;6756;51.354;15.754;2022-10-18T14:31:52;14.30;99.90
13375;DHT22;6756;51.354;15.754;2022-10-18T14:36:05;14.30;99.90
13375;DHT22;6756;51.354;15.754;2022-10-18T14:40:25;14.30;99.90
13375;DHT22;6756;51.354;15.754;2022-10-18T14:44:29;14.20;99.90
13375;DHT22;6756;51.354;15.754;2022-10-18T14:48:30;14.30;99.90
13375;DHT22;6756;51.354;15.754;2022-10-18T14:52:32;14.20;99.90
13375;DHT22;6756;51.354;15.754;2022-10-18T14:56:38;14.30;99.90
13375;DHT22;6756;51.354;15.754;2022-10-18T15:00:40;14.20;99.90
13375;DHT22;6756;51.354;15.754;2022-10-18T15:04:43;14.20;99.90
13375;DHT22;6756;51.354;15.754;2022-10-18T15:08:46;14.20;99.90
13375;DHT22;6756;51.354;15.754;2022-10-18T15:12:50;14.20;99.90
13375;DHT22;6756;51.354;15.754;2022-10-18T15:16:56;14.10;99.90
13375;DHT22;6756;51.354;15.754;2022-10-18T15:21:29;14.10;99.90
13375;DHT22;6756;51.354;15.754;2022-10-18T15:25:29;14.10;99.90
13375;DHT22;6756;51.354;15.754;2022-10-18T15:29:32;14.10;99.90
13375;DHT22;6756;51.354;15.754;2022-10-18T15:33:36;14.10;99.90
13375;DHT22;6756;51.354;15.754;2022-10-18T15:37:41;14.10;99.90
13375;DHT22;6756;51.354;15.754;2022-10-18T15:41:54;14.10;99.90
13375;DHT22;6756;51.354;15.754;2022-10-18T15:46:00;14.00;99.90
13375;DHT22;6756;51.354;15.754;2022-10-18T15:50:03;14.00;99.90
13375;DHT22;6756;51.354;15.754;2022-10-18T15:54:04;14.00;99.90
13375;DHT22;6756;51.354;15.754;2022-10-18T15:58:18;14.00;99.90
13375;DHT22;6756;51.354;15.754;2022-10-18T16:02:19;14.00;99.90
13375;DHT22;6756;51.354;15.754;2022-10-18T16:06:20;14.00;99.90
13375;DHT22;6756;51.354;15.754;2022-10-18T16:10:21;14.00;99.90
13375;DHT22;6756;51.354;15.754;2022-10-18T16:14:23;13.90;99.90
13375;DHT22;6756;51.354;15.754;2022-10-18T16:18:24;13.90;99.90
13375;DHT22;6756;51.354;15.754;2022-10-18T16:22:26;13.90;99.90
13375;DHT22;6756;51.354;15.754;2022-10-18T16:26:27;13.90;99.90
13375;DHT22;6756;51.354;15.754;2022-10-18T16:30:30;13.90;99.90
13375;DHT22;6756;51.354;15.754;2022-10-18T16:34:33;13.80;99.90
13375;DHT22;6756;51.354;15.754;2022-10-18T16:38:36;13.90;99.90
13375;DHT22;6756;51.354;15.754;2022-10-18T16:42:37;13.80;99.90
13375;DHT22;6756;51.354;15.754;2022-10-18T16:46:38;13.80;99.90
13375;DHT22;6756;51.354;15.754;2022-10-18T16:50:40;13.70;99.90
13375;DHT22;6756;51.354;15.754;2022-10-18T16:54:41;13.70;99.90
13375;DHT22;6756;51.354;15.754;2022-10-18T16:58:42;13.70;99.90
13375;DHT22;6756;51.354;15.754;2022-10-18T17:02:43;13.60;99.90
13375;DHT22;6756;51.354;15.754;2022-10-18T17:06:45;13.60;99.90
13375;DHT22;6756;51.354;15.754;2022-10-18T17:10:48;13.60;99.90
13375;DHT22;6756;51.354;15.754;2022-10-18T17:14:49;13.60;99.90
13375;DHT22;6756;51.354;15.754;2022-10-18T17:18:50;13.60;99.90
13375;DHT22;6756;51.354;15.754;2022-10-18T17:22:51;13.60;99.90
13375;DHT22;6756;51.354;15.754;2022-10-18T17:26:53;13.60;99.90
13375;DHT22;6756;51.354;15.754;2022-10-18T17:30:53;13.60;99.90
13375;DHT22;6756;51.354;15.754;2022-10-18T17:34:54;13.60;99.90
13375;DHT22;6756;51.354;15.754;2022-10-18T17:38:55;13.50;99.90
13375;DHT22;6756;51.354;15.754;2022-10-18T17:42:58;13.40;99.90
13375;DHT22;6756;51.354;15.754;2022-10-18T17:46:59;13.30;99.90
13375;DHT22;6756;51.354;15.754;2022-10-18T17:51:04;13.20;99.90
13375;DHT22;6756;51.354;15.754;2022-10-18T17:55:07;13.20;99.90
13375;DHT22;6756;51.354;15.754;2022-10-18T17:59:08;13.20;99.90
13375;DHT22;6756;51.354;15.754;2022-10-18T18:03:09;13.20;99.90
13375;DHT22;6756;51.354;15.754;2022-10-18T18:07:12;13.20;99.90
13375;DHT22;6756;51.354;15.754;2022-10-18T18:11:15;13.30;99.90
13375;DHT22;6756;51.354;15.754;2022-10-18T18:15:18;13.30;99.90
13375;DHT22;6756;51.354;15.754;2022-10-18T18:19:19;13.30;99.90
13375;DHT22;6756;51.354;15.754;2022-10-18T18:23:20;13.30;99.90
13375;DHT22;6756;51.354;15.754;2022-10-18T18:27:21;13.40;99.90
13375;DHT22;6756;51.354;15.754;2022-10-18T18:31:24;13.40;99.90
13375;DHT22;6756;51.354;15.754;2022-10-18T18:35:25;13.40;99.90
13375;DHT22;6756;51.354;15.754;2022-10-18T18:39:27;13.40;99.90
13375;DHT22;6756;51.354;15.754;2022-10-18T18:43:36;13.40;99.90
13375;DHT22;6756;51.354;15.754;2022-10-18T18:47:38;13.50;99.90
13375;DHT22;6756;51.354;15.754;2022-10-18T18:51:40;13.50;99.90
13375;DHT22;6756;51.354;15.754;2022-10-18T18:55:41;13.50;99.90
13375;DHT22;6756;51.354;15.754;2022-10-18T18:59:42;13.60;99.90
13375;DHT22;6756;51.354;15.754;2022-10-18T19:03:46;13.60;99.90
13375;DHT22;6756;51.354;15.754;2022-10-18T19:07:47;13.60;99.90
13375;DHT22;6756;51.354;15.754;2022-10-18T19:11:50;13.60;99.90
13375;DHT22;6756;51.354;15.754;2022-10-18T19:16:19;13.60;99.90
13375;DHT22;6756;51.354;15.754;2022-10-18T19:20:20;13.60;99.90
13375;DHT22;6756;51.354;15.754;2022-10-18T19:24:22;13.60;99.90
13375;DHT22;6756;51.354;15.754;2022-10-18T19:28:23;13.60;99.90
13375;DHT22;6756;51.354;15.754;2022-10-18T19:32:24;13.60;99.90
13375;DHT22;6756;51.354;15.754;2022-10-18T19:36:26;13.60;99.90
13375;DHT22;6756;51.354;15.754;2022-10-18T19:40:27;13.60;99.90
13375;DHT22;6756;51.354;15.754;2022-10-18T19:44:30;13.60;99.90
13375;DHT22;6756;51.354;15.754;2022-10-18T19:48:31;13.50;99.90
13375;DHT22;6756;51.354;15.754;2022-10-18T19:52:33;13.40;99.90
13375;DHT22;6756;51.354;15.754;2022-10-18T19:56:34;13.30;99.90
13375;DHT22;6756;51.354;15.754;2022-10-18T20:00:35;13.30;99.90
13375;DHT22;6756;51.354;15.754;2022-10-18T20:04:36;13.30;99.90
13375;DHT22;6756;51.354;15.754;2022-10-18T20:08:40;13.40;99.90
13375;DHT22;6756;51.354;15.754;2022-10-18T20:12:41;13.40;99.90
13375;DHT22;6756;51.354;15.754;2022-10-18T20:16:42;13.40;99.90
13375;DHT22;6756;51.354;15.754;2022-10-18T20:20:43;13.40;99.90
13375;DHT22;6756;51.354;15.754;2022-10-18T20:24:44;13.40;99.90
13375;DHT22;6756;51.354;15.754;2022-10-18T20:28:50;13.40;99.90
13375;DHT22;6756;51.354;15.754;2022-10-18T20:32:56;13.40;99.90
13375;DHT22;6756;51.354;15.754;2022-10-18T20:36:57;13.40;99.90
13375;DHT22;6756;51.354;15.754;2022-10-18T20:41:06;13.30;99.90
13375;DHT22;6756;51.354;15.754;2022-10-18T20:45:07;13.30;99.90
13375;DHT22;6756;51.354;15.754;2022-10-18T20:49:12;13.10;99.90
13375;DHT22;6756;51.354;15.754;2022-10-18T20:53:14;13.10;99.90
13375;DHT22;6756;51.354;15.754;2022-10-18T20:57:14;13.20;99.90
13375;DHT22;6756;51.354;15.754;2022-10-18T21:01:26;13.20;99.90
13375;DHT22;6756;51.354;15.754;2022-10-18T21:05:28;13.20;99.90
13375;DHT22;6756;51.354;15.754;2022-10-18T21:09:29;13.30;99.90
13375;DHT22;6756;51.354;15.754;2022-10-18T21:13:30;13.30;99.90
13375;DHT22;6756;51.354;15.754;2022-10-18T21:17:31;13.30;99.90
13375;DHT22;6756;51.354;15.754;2022-10-18T21:21:32;13.30;99.90
13375;DHT22;6756;51.354;15.754;2022-10-18T21:25:33;13.30;99.90
13375;DHT22;6756;51.354;15.754;2022-10-18T21:29:34;13.30;99.90
13375;DHT22;6756;51.354;15.754;2022-10-18T21:33:35;13.40;99.90
13375;DHT22;6756;51.354;15.754;2022-10-18T21:37:36;13.30;99.90
13375;DHT22;6756;51.354;15.754;2022-10-18T21:41:37;13.20;99.90
13375;DHT22;6756;51.354;15.754;2022-10-18T21:45:37;13.20;99.90
13375;DHT22;6756;51.354;15.754;2022-10-18T21:49:38;13.10;99.90
13375;DHT22;6756;51.354;15.754;2022-10-18T21:53:41;13.00;99.90
13375;DHT22;6756;51.354;15.754;2022-10-18T21:57:43;12.90;99.90
13375;DHT22;6756;51.354;15.754;2022-10-18T22:01:44;12.90;99.90
13375;DHT22;6756;51.354;15.754;2022-10-18T22:05:45;12.80;99.90
13375;DHT22;6756;51.354;15.754;2022-10-18T22:09:46;12.70;99.90
13375;DHT22;6756;51.354;15.754;2022-10-18T22:13:46;12.60;99.90
13375;DHT22;6756;51.354;15.754;2022-10-18T22:17:47;12.50;99.90
13375;DHT22;6756;51.354;15.754;2022-10-18T22:21:50;12.50;99.90
13375;DHT22;6756;51.354;15.754;2022-10-18T22:25:50;12.50;99.90
13375;DHT22;6756;51.354;15.754;2022-10-18T22:29:51;12.50;99.90
13375;DHT22;6756;51.354;15.754;2022-10-18T22:34:01;12.60;99.90
13375;DHT22;6756;51.354;15.754;2022-10-18T22:38:02;12.50;99.90
13375;DHT22;6756;51.354;15.754;2022-10-18T22:42:03;12.40;99.90
13375;DHT22;6756;51.354;15.754;2022-10-18T22:46:08;12.20;99.90
13375;DHT22;6756;51.354;15.754;2022-10-18T22:50:09;12.00;99.90
13375;DHT22;6756;51.354;15.754;2022-10-18T22:54:10;11.90;99.90
13375;DHT22;6756;51.354;15.754;2022-10-18T22:58:11;11.70;99.90
13375;DHT22;6756;51.354;15.754;2022-10-18T23:02:11;11.50;99.90
13375;DHT22;6756;51.354;15.754;2022-10-18T23:10:25;11.30;99.90
13375;DHT22;6756;51.354;15.754;2022-10-18T23:14:25;11.20;99.90
13375;DHT22;6756;51.354;15.754;2022-10-18T23:18:26;11.20;99.90
13375;DHT22;6756;51.354;15.754;2022-10-18T23:22:27;11.20;99.90
13375;DHT22;6756;51.354;15.754;2022-10-18T23:26:28;11.10;99.90
13375;DHT22;6756;51.354;15.754;2022-10-18T23:30:29;10.90;99.90
13375;DHT22;6756;51.354;15.754;2022-10-18T23:34:29;10.90;99.90
13375;DHT22;6756;51.354;15.754;2022-10-18T23:38:31;10.80;99.90
13375;DHT22;6756;51.354;15.754;2022-10-18T23:42:32;10.70;99.90
13375;DHT22;6756;51.354;15.754;2022-10-18T23:46:33;10.80;99.90
13375;DHT22;6756;51.354;15.754;2022-10-18T23:50:33;10.90;99.90
13375;DHT22;6756;51.354;15.754;2022-10-18T23:54:34;11.00;99.90
13375;DHT22;6756;51.354;15.754;2022-10-18T23:58:36;11.10;99.90
